createdAt,value
2023-01-03T07:11:01.883Z,108.00
2023-01-03T07:12:03.915Z,120.00
2023-01-03T07:13:05.927Z,132.00
2023-01-03T07:14:07.946Z,144.00
2023-01-03T07:15:19.497Z,156.00
2023-01-03T07:16:11.677Z,172.00
2023-01-03T07:17:13.657Z,184.00
2023-01-03T07:18:15.698Z,200.00
2023-01-03T07:19:17.722Z,216.00
2023-01-03T07:20:19.722Z,232.00
2023-01-03T07:21:21.735Z,248.00
2023-01-03T07:22:23.740Z,264.00
2023-01-03T07:23:25.756Z,280.00
2023-01-03T07:24:27.780Z,300.00
2023-01-03T07:25:29.796Z,316.00
2023-01-03T07:26:31.808Z,336.00
2023-01-03T07:27:33.844Z,356.00
2023-01-03T07:28:35.891Z,372.00
2023-01-03T07:29:37.902Z,400.00
2023-01-03T07:30:39.923Z,420.00
2023-01-03T07:31:42.072Z,448.00
2023-01-03T07:32:44.078Z,472.00
2023-01-03T07:33:46.106Z,496.00
2023-01-03T07:34:48.142Z,524.00
2023-01-03T07:35:50.178Z,556.00
2023-01-03T07:36:52.195Z,580.00
2023-01-03T07:37:54.242Z,612.00
2023-01-03T07:38:56.248Z,644.00
2023-01-03T07:39:58.295Z,660.00
2023-01-03T07:41:00.329Z,716.00
2023-01-03T07:42:02.388Z,800.00
2023-01-03T07:43:04.396Z,836.00
2023-01-03T07:44:06.425Z,868.00
2023-01-03T07:45:08.457Z,912.00
2023-01-03T07:46:10.553Z,972.00
2023-01-03T07:47:12.607Z,1000.00
2023-01-03T07:48:14.657Z,964.00
2023-01-03T07:49:16.701Z,968.00
2023-01-03T07:50:18.719Z,984.00
2023-01-03T07:51:20.716Z,992.00
2023-01-03T07:52:22.752Z,1024.00
2023-01-03T07:53:24.785Z,1052.00
2023-01-03T07:54:26.819Z,1076.00
2023-01-03T07:55:28.826Z,1128.00
2023-01-03T07:56:30.885Z,1168.00
2023-01-03T07:57:32.916Z,1196.00
2023-01-03T07:58:34.930Z,1204.00
2023-01-03T07:59:36.962Z,1196.00
2023-01-03T08:00:39.008Z,1124.00
2023-01-03T08:01:41.140Z,1100.00
2023-01-03T08:02:43.319Z,1108.00
2023-01-03T08:03:45.403Z,1104.00
2023-01-03T08:04:47.458Z,1140.00
2023-01-03T08:05:49.467Z,1196.00
2023-01-03T08:06:51.481Z,1272.00
2023-01-03T08:07:53.508Z,1340.00
2023-01-03T08:08:57.002Z,1316.00
2023-01-03T08:09:57.581Z,1424.00
2023-01-03T08:10:59.573Z,1676.00
2023-01-03T08:12:01.586Z,1828.00
2023-01-03T08:13:03.612Z,1908.00
2023-01-03T08:14:05.623Z,1792.00
2023-01-03T08:15:07.633Z,1576.00
2023-01-03T08:16:09.677Z,1436.00
2023-01-03T08:17:11.682Z,1532.00
2023-01-03T08:18:13.708Z,1780.00
2023-01-03T08:19:15.726Z,1856.00
2023-01-03T08:20:17.743Z,1804.00
2023-01-03T08:21:19.757Z,1764.00
2023-01-03T08:22:21.762Z,1824.00
2023-01-03T08:23:23.820Z,2132.00
2023-01-03T08:24:25.822Z,2580.00
2023-01-03T08:25:27.853Z,2776.00
2023-01-03T08:26:29.890Z,2832.00
2023-01-03T08:27:31.912Z,2572.00
2023-01-03T08:28:33.919Z,2768.00
2023-01-03T08:29:35.921Z,2688.00
2023-01-03T08:30:37.977Z,2600.00
2023-01-03T08:31:40.132Z,2780.00
2023-01-03T08:32:42.183Z,2904.00
2023-01-03T08:33:44.233Z,2816.00
2023-01-03T08:34:46.223Z,2660.00
2023-01-03T08:35:48.260Z,2456.00
2023-01-03T08:36:50.284Z,2044.00
2023-01-03T08:37:52.304Z,1872.00
2023-01-03T08:38:54.356Z,1780.00
2023-01-03T08:39:56.385Z,2108.00
2023-01-03T08:40:58.420Z,2548.00
2023-01-03T08:42:00.457Z,2572.00
2023-01-03T08:43:02.470Z,2420.00
2023-01-03T08:44:04.560Z,2420.00
2023-01-03T08:45:06.597Z,2536.00
2023-01-03T08:46:08.646Z,2572.00
2023-01-03T08:47:10.789Z,2076.00
2023-01-03T08:48:12.864Z,1828.00
2023-01-03T08:49:14.927Z,1704.00
2023-01-03T08:50:16.914Z,1720.00
2023-01-03T08:51:18.950Z,1872.00
2023-01-03T08:52:20.977Z,2504.00
2023-01-03T08:53:23.019Z,2848.00
2023-01-03T08:54:25.081Z,2684.00
2023-01-03T08:55:27.101Z,3188.00
2023-01-03T08:56:29.121Z,3116.00
2023-01-03T08:57:31.136Z,3156.00
2023-01-03T08:58:33.143Z,2728.00
2023-01-03T08:59:35.185Z,2148.00
2023-01-03T09:00:37.221Z,1984.00
2023-01-03T09:01:39.325Z,2380.00
2023-01-03T09:02:41.643Z,3064.00
2023-01-03T09:03:42.830Z,2840.00
2023-01-03T09:04:43.774Z,2640.00
2023-01-03T09:05:45.780Z,2984.00
2023-01-03T09:06:47.795Z,3156.00
2023-01-03T09:07:49.813Z,3164.00
2023-01-03T09:08:51.863Z,2628.00
2023-01-03T09:09:53.892Z,2200.00
2023-01-03T09:10:55.897Z,2388.00
2023-01-03T09:11:57.931Z,2572.00
2023-01-03T09:12:59.944Z,2884.00
2023-01-03T09:14:01.977Z,3600.00
2023-01-03T09:15:03.986Z,3556.00
2023-01-03T09:16:06.067Z,3148.00
2023-01-03T09:17:08.094Z,2948.00
2023-01-03T09:18:10.123Z,2776.00
2023-01-03T09:19:12.137Z,2864.00
2023-01-03T09:20:14.160Z,2880.00
2023-01-03T09:21:16.205Z,2832.00
2023-01-03T09:22:18.242Z,2752.00
2023-01-03T09:23:20.284Z,2744.00
2023-01-03T09:24:22.292Z,2892.00
2023-01-03T09:25:24.328Z,2984.00
2023-01-03T09:26:26.370Z,2824.00
2023-01-03T09:27:28.399Z,2676.00
2023-01-03T09:28:30.411Z,2736.00
2023-01-03T09:29:32.422Z,2828.00
2023-01-03T09:30:34.459Z,2804.00
2023-01-03T09:31:36.498Z,2712.00
2023-01-03T09:32:38.514Z,2648.00
2023-01-03T09:33:40.699Z,2736.00
2023-01-03T09:34:42.706Z,2784.00
2023-01-03T09:35:44.727Z,2648.00
2023-01-03T09:36:46.734Z,2636.00
2023-01-03T09:37:49.189Z,2668.00
2023-01-03T09:38:50.126Z,2600.00
2023-01-03T09:39:52.155Z,2640.00
2023-01-03T09:40:54.188Z,2600.00
2023-01-03T09:41:56.232Z,2580.00
2023-01-03T09:42:58.293Z,2564.00
2023-01-03T09:44:00.352Z,2552.00
2023-01-03T09:45:02.358Z,2540.00
2023-01-03T09:46:04.396Z,2552.00
2023-01-03T09:47:06.478Z,2532.00
2023-01-03T09:48:08.509Z,2516.00
2023-01-03T09:49:10.519Z,2512.00
2023-01-03T09:50:29.482Z,2524.00
2023-01-03T09:51:21.256Z,2536.00
2023-01-03T09:52:15.448Z,2432.00
2023-01-03T09:53:17.448Z,2448.00
2023-01-03T09:54:19.481Z,2356.00
2023-01-03T09:55:21.511Z,2492.00
2023-01-03T09:56:23.547Z,2528.00
2023-01-03T09:57:28.594Z,2352.00
2023-01-03T09:58:27.447Z,2340.00
2023-01-03T09:59:29.456Z,2544.00
2023-01-03T10:00:31.557Z,2568.00
2023-01-03T10:01:33.669Z,2596.00
2023-01-03T10:02:35.855Z,2516.00
2023-01-03T10:03:36.964Z,2536.00
2023-01-03T10:04:39.012Z,2540.00
2023-01-03T10:05:41.042Z,2544.00
2023-01-03T10:06:43.081Z,2544.00
2023-01-03T10:07:45.105Z,2552.00
2023-01-03T10:08:47.123Z,2564.00
2023-01-03T10:09:49.148Z,2576.00
2023-01-03T10:10:51.170Z,2580.00
2023-01-03T10:11:53.221Z,2588.00
2023-01-03T10:12:55.271Z,2596.00
2023-01-03T10:13:57.292Z,2600.00
2023-01-03T10:14:59.315Z,2616.00
2023-01-03T10:16:01.418Z,2616.00
2023-01-03T10:17:03.537Z,2616.00
2023-01-03T10:18:05.528Z,2612.00
2023-01-03T10:19:07.570Z,2616.00
2023-01-03T10:20:09.594Z,2620.00
2023-01-03T10:21:11.589Z,2628.00
2023-01-03T10:22:13.606Z,2632.00
2023-01-03T10:23:15.644Z,2688.00
2023-01-03T10:24:17.668Z,2700.00
2023-01-03T10:25:19.685Z,2752.00
2023-01-03T10:26:21.686Z,2696.00
2023-01-03T10:27:23.755Z,2716.00
2023-01-03T10:28:25.766Z,2740.00
2023-01-03T10:29:27.781Z,2768.00
2023-01-03T10:30:29.829Z,2816.00
2023-01-03T10:31:31.895Z,2968.00
2023-01-03T10:32:33.927Z,3308.00
2023-01-03T10:33:35.947Z,3960.00
2023-01-03T10:34:37.981Z,6180.00
2023-01-03T10:35:40.011Z,7872.00
2023-01-03T10:36:42.030Z,8092.00
2023-01-03T10:37:44.066Z,8176.00
2023-01-03T10:38:52.531Z,8188.00
2023-01-03T10:39:47.555Z,8236.00
2023-01-03T10:40:49.554Z,8260.00
2023-01-03T10:41:51.594Z,8292.00
2023-01-03T10:42:53.665Z,8336.00
2023-01-03T10:43:55.685Z,8380.00
2023-01-03T10:44:57.708Z,8392.00
2023-01-03T10:45:59.832Z,8356.00
2023-01-03T10:47:01.891Z,8416.00
2023-01-03T10:48:03.959Z,8484.00
2023-01-03T10:50:07.472Z,8708.00
2023-01-03T10:51:09.495Z,8796.00
2023-01-03T10:52:11.529Z,8884.00
2023-01-03T10:53:13.574Z,9044.00
2023-01-03T10:54:15.607Z,9240.00
2023-01-03T10:55:17.646Z,9592.00
2023-01-03T10:56:19.662Z,10144.00
2023-01-03T10:57:21.681Z,10600.00
2023-01-03T10:58:23.709Z,11028.00
2023-01-03T10:59:25.763Z,11384.00
2023-01-03T11:00:27.842Z,11908.00
2023-01-03T11:01:30.036Z,12424.00
2023-01-03T11:02:31.150Z,12412.00
2023-01-03T11:03:32.273Z,11924.00
2023-01-03T11:04:34.289Z,11776.00
2023-01-03T11:05:36.319Z,12256.00
2023-01-03T11:06:38.333Z,12832.00
2023-01-03T11:07:40.370Z,13232.00
2023-01-03T11:08:42.438Z,13420.00
2023-01-03T11:09:50.637Z,13544.00
2023-01-03T11:10:45.912Z,13240.00
2023-01-03T11:11:47.957Z,12936.00
2023-01-03T11:12:50.019Z,13664.00
2023-01-03T11:13:52.036Z,13668.00
2023-01-03T11:14:54.099Z,13580.00
2023-01-03T11:15:56.193Z,13696.00
2023-01-03T11:16:58.279Z,13316.00
2023-01-03T11:18:00.311Z,13324.00
2023-01-03T11:19:02.325Z,12380.00
2023-01-03T11:20:04.336Z,9400.00
2023-01-03T11:21:06.357Z,5460.00
2023-01-03T11:22:08.400Z,9512.00
2023-01-03T11:23:10.423Z,4516.00
2023-01-03T11:24:12.481Z,3284.00
2023-01-03T11:25:14.495Z,2372.00
2023-01-03T11:26:16.560Z,2520.00
2023-01-03T11:27:18.602Z,2764.00
2023-01-03T11:28:20.644Z,3516.00
2023-01-03T11:29:22.703Z,2572.00
2023-01-03T11:30:24.738Z,2272.00
2023-01-03T11:31:26.841Z,2832.00
2023-01-03T11:32:28.891Z,2348.00
2023-01-03T11:33:30.905Z,2692.00
2023-01-03T11:34:54.968Z,2308.00
2023-01-03T11:35:34.397Z,2464.00
2023-01-03T11:36:36.417Z,2704.00
2023-01-03T11:37:38.439Z,2736.00
2023-01-03T11:38:40.480Z,2176.00
2023-01-03T11:39:42.535Z,2232.00
2023-01-03T11:40:44.610Z,3828.00
2023-01-03T11:41:46.639Z,4140.00
2023-01-03T11:42:48.679Z,3060.00
2023-01-03T11:43:50.724Z,2860.00
2023-01-03T11:44:52.773Z,4116.00
2023-01-03T11:45:54.828Z,4324.00
2023-01-03T11:46:56.816Z,4096.00
2023-01-03T11:47:58.849Z,3204.00
2023-01-03T11:49:00.860Z,3216.00
2023-01-03T11:50:02.918Z,3464.00
2023-01-03T11:51:04.958Z,2924.00
2023-01-03T11:52:06.991Z,3296.00
2023-01-03T11:53:09.014Z,2680.00
2023-01-03T11:54:11.037Z,2368.00
2023-01-03T11:55:13.067Z,2360.00
2023-01-03T11:56:15.175Z,2692.00
2023-01-03T11:57:17.169Z,2944.00
2023-01-03T11:58:19.169Z,2848.00
2023-01-03T11:59:21.191Z,2520.00
2023-01-03T12:00:23.239Z,2376.00
2023-01-03T12:01:25.340Z,2652.00
2023-01-03T12:02:27.509Z,2384.00
2023-01-03T12:03:28.558Z,2340.00
2023-01-03T12:04:30.758Z,2276.00
2023-01-03T12:05:31.993Z,2296.00
2023-01-03T12:06:32.917Z,2456.00
2023-01-03T12:07:47.437Z,3128.00
2023-01-03T12:08:36.355Z,4512.00
2023-01-03T12:09:38.365Z,3392.00
2023-01-03T12:10:40.393Z,2552.00
2023-01-03T12:11:42.429Z,2540.00
2023-01-03T12:12:44.459Z,2612.00
2023-01-03T12:13:46.494Z,2540.00
2023-01-03T12:14:48.513Z,2640.00
2023-01-03T12:15:50.657Z,2524.00
2023-01-03T12:16:52.670Z,2376.00
2023-01-03T12:17:54.678Z,2328.00
2023-01-03T12:18:56.719Z,2436.00
2023-01-03T12:19:58.718Z,3364.00
2023-01-03T12:21:00.766Z,2820.00
2023-01-03T12:22:12.326Z,2364.00
2023-01-03T12:23:04.428Z,2624.00
2023-01-03T12:24:06.451Z,2208.00
2023-01-03T12:25:08.470Z,2140.00
2023-01-03T12:26:10.524Z,2352.00
2023-01-03T12:27:12.525Z,2204.00
2023-01-03T12:28:14.563Z,2152.00
2023-01-03T12:29:16.593Z,2296.00
2023-01-03T12:30:18.626Z,2084.00
2023-01-03T12:31:22.347Z,2068.00
2023-01-03T12:32:22.672Z,2148.00
2023-01-03T12:33:24.722Z,2124.00
2023-01-03T12:34:26.708Z,2152.00
2023-01-03T12:35:28.707Z,2132.00
2023-01-03T12:36:30.756Z,2252.00
2023-01-03T12:37:32.768Z,2212.00
2023-01-03T12:38:34.827Z,2104.00
2023-01-03T12:39:36.978Z,2196.00
2023-01-03T12:40:38.979Z,2196.00
2023-01-03T12:41:41.036Z,2072.00
2023-01-03T12:42:43.060Z,2060.00
2023-01-03T12:43:45.077Z,2088.00
2023-01-03T12:44:47.178Z,2220.00
2023-01-03T12:45:49.187Z,2240.00
2023-01-03T12:46:51.297Z,2172.00
2023-01-03T12:47:52.335Z,2076.00
2023-01-03T12:48:54.364Z,2212.00
2023-01-03T12:49:56.380Z,2144.00
2023-01-03T12:50:58.410Z,2104.00
2023-01-03T12:52:00.513Z,2080.00
2023-01-03T12:53:02.542Z,2056.00
2023-01-03T12:54:04.564Z,2060.00
2023-01-03T12:55:06.566Z,2024.00
2023-01-03T12:56:08.579Z,1996.00
2023-01-03T12:57:10.618Z,2024.00
2023-01-03T12:58:12.642Z,1996.00
2023-01-03T12:59:14.641Z,1960.00
2023-01-03T13:00:16.667Z,1952.00
2023-01-03T13:01:18.787Z,1976.00
2023-01-03T13:02:21.093Z,1932.00
2023-01-03T13:03:22.225Z,1900.00
2023-01-03T13:04:24.201Z,1920.00
2023-01-03T13:05:25.224Z,1924.00
2023-01-03T13:06:27.241Z,1924.00
2023-01-03T13:07:29.285Z,1880.00
2023-01-03T13:08:31.296Z,1872.00
2023-01-03T13:09:33.305Z,1908.00
2023-01-03T13:10:35.349Z,1960.00
2023-01-03T13:11:37.386Z,1952.00
2023-01-03T13:12:39.399Z,1840.00
2023-01-03T13:13:41.402Z,1804.00
2023-01-03T13:14:43.417Z,1848.00
2023-01-03T13:15:45.513Z,1900.00
2023-01-03T13:16:47.584Z,1856.00
2023-01-03T13:17:49.619Z,1812.00
2023-01-03T13:18:51.641Z,1836.00
2023-01-03T13:19:53.666Z,1812.00
2023-01-03T13:20:55.703Z,1828.00
2023-01-03T13:21:57.700Z,1836.00
2023-01-03T13:22:59.717Z,1812.00
2023-01-03T13:24:01.741Z,1804.00
2023-01-03T13:25:03.765Z,1796.00
2023-01-03T13:26:05.931Z,1800.00
2023-01-03T13:27:07.962Z,1800.00
2023-01-03T13:28:09.982Z,1764.00
2023-01-03T13:29:12.046Z,1748.00
2023-01-03T13:30:14.069Z,1772.00
2023-01-03T13:31:16.160Z,1780.00
2023-01-03T13:32:18.150Z,1748.00
2023-01-03T13:33:20.202Z,1736.00
2023-01-03T13:34:22.238Z,1724.00
2023-01-03T13:35:24.267Z,1708.00
2023-01-03T13:36:26.304Z,1708.00
2023-01-03T13:37:28.326Z,1700.00
2023-01-03T13:38:30.348Z,1696.00
2023-01-03T13:39:32.366Z,1684.00
2023-01-03T13:41:15.356Z,1676.00
2023-01-03T13:41:35.814Z,1656.00
2023-01-03T13:42:37.844Z,1640.00
2023-01-03T13:43:40.431Z,1608.00
2023-01-03T13:44:41.345Z,1620.00
2023-01-03T13:45:43.383Z,1608.00
2023-01-03T13:46:45.454Z,1592.00
2023-01-03T13:47:47.520Z,1580.00
2023-01-03T13:48:49.515Z,1572.00
2023-01-03T13:49:54.016Z,1564.00
2023-01-03T13:50:52.973Z,1536.00
2023-01-03T13:51:54.989Z,1532.00
2023-01-03T13:52:56.992Z,1520.00
2023-01-03T13:53:59.066Z,1516.00
2023-01-03T13:55:01.078Z,1500.00
2023-01-03T13:56:03.092Z,1504.00
2023-01-03T13:57:05.135Z,1492.00
2023-01-03T13:58:07.149Z,1492.00
2023-01-03T13:59:09.177Z,1476.00
2023-01-03T14:00:11.194Z,1468.00
2023-01-03T14:01:13.218Z,1464.00
2023-01-03T14:02:15.353Z,1448.00
2023-01-03T14:03:17.554Z,1428.00
2023-01-03T14:04:19.598Z,1412.00
2023-01-03T14:05:21.616Z,1388.00
2023-01-03T14:06:23.650Z,1376.00
2023-01-03T14:07:25.669Z,1360.00
2023-01-03T14:08:33.386Z,1348.00
2023-01-03T14:09:29.116Z,1344.00
2023-01-03T14:10:31.134Z,1328.00
2023-01-03T14:11:33.172Z,1316.00
2023-01-03T14:12:35.194Z,1296.00
2023-01-03T14:13:37.217Z,1280.00
2023-01-03T14:14:39.243Z,1288.00
2023-01-03T14:15:41.308Z,1296.00
2023-01-03T14:16:43.406Z,1284.00
2023-01-03T14:17:44.427Z,1244.00
2023-01-03T14:18:46.438Z,1224.00
2023-01-03T14:19:48.456Z,1200.00
2023-01-03T14:20:50.496Z,1172.00
2023-01-03T14:21:52.535Z,1152.00
2023-01-03T14:22:54.546Z,1132.00
2023-01-03T14:24:01.543Z,1112.00
2023-01-03T14:24:58.048Z,1096.00
2023-01-03T14:26:00.053Z,1076.00
2023-01-03T14:27:02.093Z,1056.00
2023-01-03T14:28:04.081Z,1036.00
2023-01-03T14:29:06.095Z,1016.00
2023-01-03T14:30:08.124Z,1008.00
2023-01-03T14:31:10.169Z,996.00
2023-01-03T14:32:12.174Z,984.00
2023-01-03T14:33:14.205Z,964.00
2023-01-03T14:34:16.206Z,944.00
2023-01-03T14:35:18.448Z,936.00
2023-01-03T14:36:19.376Z,912.00
2023-01-03T14:37:21.390Z,868.00
2023-01-03T14:38:23.437Z,844.00
2023-01-03T14:39:25.457Z,832.00
2023-01-03T14:40:27.487Z,808.00
2023-01-03T14:41:29.519Z,788.00
2023-01-03T14:42:31.560Z,772.00
2023-01-03T14:43:33.558Z,752.00
2023-01-03T14:44:35.576Z,732.00
2023-01-03T14:45:37.580Z,716.00
2023-01-03T14:46:39.671Z,700.00
2023-01-03T14:47:41.701Z,680.00
2023-01-03T14:48:43.728Z,660.00
2023-01-03T14:49:45.764Z,636.00
2023-01-03T14:50:47.835Z,612.00
2023-01-03T14:51:49.849Z,588.00
2023-01-03T14:52:51.847Z,568.00
2023-01-03T14:53:53.858Z,552.00
2023-01-03T14:55:00.119Z,532.00
2023-01-03T14:55:57.345Z,516.00
2023-01-03T14:56:59.356Z,496.00
2023-01-03T14:58:01.368Z,472.00
2023-01-03T14:59:03.395Z,448.00
2023-01-03T15:00:05.500Z,428.00
2023-01-03T15:01:07.665Z,416.00
2023-01-03T15:02:09.812Z,388.00
2023-01-03T15:03:11.976Z,360.00
2023-01-03T15:04:14.027Z,340.00
2023-01-03T15:05:16.041Z,324.00
2023-01-03T15:06:18.087Z,300.00
2023-01-03T15:07:20.120Z,284.00
2023-01-03T15:08:22.158Z,268.00
2023-01-03T15:09:24.141Z,252.00
2023-01-03T15:10:26.149Z,236.00
2023-01-03T15:11:28.190Z,220.00
2023-01-03T15:12:30.212Z,200.00
2023-01-03T15:13:32.239Z,188.00
2023-01-03T15:14:34.270Z,176.00
2023-01-03T15:15:36.305Z,160.00
2023-01-03T15:16:38.377Z,144.00
2023-01-03T15:17:40.409Z,132.00
2023-01-03T15:18:42.476Z,124.00
